首页
METAR-TAF:

METAR-TAF

机场 :

苏丹阿末沙机场

关丹, 马来西亚

纬度: 03-37N, 经度: 103-13E, 海拔: 18米

当前天气观测

该预报发布于1小时和23分钟前的00:00 UTC
风速3节,风向,在西北东转东北之间变化
温度 24°C
湿度 94%
气压 1011 hPa
能见度10公里或以上
少量云层高于2500英尺

METAR: WMKD 260000Z 01003KT 320V070 9999 FEW025 24/23 Q1011 NOSIG

时间: 09:23 (01:23 UTC)


TAF: 丢失

超过4000个机场的气象观测和天气预报(METAR&TAF报告)。

可查询的气象台以黄色和红色小点在地图上表示。

将鼠标移到小点上方,可查看气象台名称。

然后点击查看天气观测和预报。

如需切换地图:点击带黑十字的绿色按钮放大地图;点击带横线的绿色按钮缩小地图;或者点击绿色箭头查看邻近地区的地图。


METAR-TAF: